Portada
METAR-TAF:

METAR-TAF

Aeroports :

Kays, Iran

latitud: 26-31-36N, longitud: 053-58-54E, altitud: 30 m

Observació

L'informe es va fer fa 55 minuts, a les 23:00 UTC
Vent 6 kt del Nord/Nord-Oest
Temperatura 17°C
Humitat 48%
Pressió 1017 hPa
Visibilitat 10 km o més
sense núvols per sota de 1500 mi sense presència de cumulonimbus.

METAR: OIBK 212300Z 33006KT CAVOK 17/06 Q1017

Hora: 03:25 (23:55 UTC)

Pronòstic

L'informe es va fer fa 25 minuts, a les 23:30 UTC
Pronòstic vàlid del 22 a les 00 UTC al 23 a les 06 UTC
Vent 8 kt del Nord/Nord-Oest
Visibilitat: 7000 m
Evolucionant progressivament
l' 22 a les 05 UTC al 22 a les 07 UTC
Vent 12 kt del Est/Sud-Est
Evolucionant progressivament
l' 22 a les 21 UTC al 22 a les 23 UTC
Vent 8 kt del Nord-Oest
Escasses núvols a una alçada de 4000 ft
Cel ennuvolat a una alçada de 12000 ft

TAF: OIBK 212330Z 2200/2306 33008KT 7000 NSC BECMG 2205/2207 12012KT BECMG 2221/2223 32008KT FEW040 BKN120

Observacions i pronòstics meteorològics de més de 4000 aeroports (METAR i TAF).

Les estacions disponibles són els punts grocs i vermells al mapa.

Posi el ratolí al punt desitjat per veure el nom de l'estació.

Feu clic per veure les observacions i els pronòstics meteorològics.

Per canviar el mapa: feu clic els botons verds amb una creu de color negre per apropar; al botó verd amb un guió per allunyar la imatge; o en les fletxes verdes per a mapes adjacents.


METAR-TAF: